Time;durP1;ratioP1;P1;durP2;ratioP2;P2;SDS_P1;SDS_P2;PMS_P1;PMS_P2;Temp;Humidity;BMP_temperature;BMP_pressure;BME280_temperature;BME280_humidity;BME280_pressure;Samples;Min_cycle;Max_cycle;Signal;HPM_P1;HPM_P2
2022/03/23 00:00:55;;;;;;;;;;;9.60;51.40;;;;;;8393166;28;19932;-73
2022/03/23 00:04:57;;;;;;;;;;;9.60;51.10;;;;;;8406237;28;20018;-73
2022/03/23 00:09:00;;;;;;;;;;;9.50;50.90;;;;;;8388706;28;19924;-73
2022/03/23 00:13:04;;;;;;;;;;;9.40;51.10;;;;;;8418535;28;19946;-73
2022/03/23 00:17:06;;;;;;;;;;;9.40;50.90;;;;;;8402725;28;21680;-73
2022/03/23 00:21:08;;;;;;;;;;;9.30;51.10;;;;;;8416062;28;19928;-73
2022/03/23 00:25:10;;;;;;;;;;;9.30;51.30;;;;;;8400721;28;19945;-73
2022/03/23 00:29:11;;;;;;;;;;;9.20;51.00;;;;;;8409845;28;19924;-73
2022/03/23 00:33:14;;;;;;;;;;;9.20;51.60;;;;;;8397685;28;19940;-73
2022/03/23 00:37:16;;;;;;;;;;;9.20;51.50;;;;;;8402487;28;19932;-73
2022/03/23 00:41:18;;;;;;;;;;;9.10;51.60;;;;;;8407582;28;19935;-73
2022/03/23 00:45:20;;;;;;;;;;;9.00;51.90;;;;;;8405408;28;19939;-72
2022/03/23 00:49:22;;;;;;;;;;;9.00;51.80;;;;;;8411348;28;19928;-73
2022/03/23 00:53:23;;;;;;;;;;;8.90;51.80;;;;;;8382476;28;19955;-73
2022/03/23 00:57:25;;;;;;;;;;;8.90;51.80;;;;;;8384472;28;19924;-73
2022/03/23 01:01:29;;;;;;;;;;;8.80;51.80;;;;;;8406971;28;19932;-73
2022/03/23 01:05:31;;;;;;;;;;;8.70;51.90;;;;;;8407486;28;19935;-73
2022/03/23 01:09:32;;;;;;;;;;;8.70;52.10;;;;;;8392262;28;19981;-73
2022/03/23 01:13:34;;;;;;;;;;;8.70;52.00;;;;;;8408865;28;19928;-73
2022/03/23 01:17:36;;;;;;;;;;;8.60;52.20;;;;;;8416850;28;19990;-73
2022/03/23 01:21:38;;;;;;;;;;;8.60;52.40;;;;;;8411794;28;20388;-73
2022/03/23 01:25:40;;;;;;;;;;;8.60;52.80;;;;;;8411339;28;19932;-72
2022/03/23 01:29:42;;;;;;;;;;;8.50;52.40;;;;;;8407386;28;20280;-73
2022/03/23 01:33:43;;;;;;;;;;;8.40;52.30;;;;;;8393772;28;20218;-73
2022/03/23 01:37:45;;;;;;;;;;;8.20;52.20;;;;;;8403145;28;19932;-73
2022/03/23 01:41:47;;;;;;;;;;;8.20;53.10;;;;;;8391347;28;19932;-72
2022/03/23 01:45:48;;;;;;;;;;;8.10;52.80;;;;;;8423250;28;19924;-73
2022/03/23 01:49:55;;;;;;;;;;;8.10;52.60;;;;;;8417304;28;20414;-73
2022/03/23 01:53:56;;;;;;;;;;;8.10;52.50;;;;;;8414982;28;20065;-72
2022/03/23 01:57:58;;;;;;;;;;;8.00;52.30;;;;;;8418046;28;20397;-73
2022/03/23 02:02:00;;;;;;;;;;;7.90;52.70;;;;;;8412371;28;19924;-73
2022/03/23 02:06:02;;;;;;;;;;;7.80;52.70;;;;;;8410701;28;19928;-73
2022/03/23 02:10:04;;;;;;;;;;;7.70;52.70;;;;;;8378499;28;20445;-73
2022/03/23 02:14:05;;;;;;;;;;;7.60;52.80;;;;;;8400087;28;19928;-73
2022/03/23 02:18:07;;;;;;;;;;;7.50;52.90;;;;;;8411782;28;21918;-73
2022/03/23 02:22:09;;;;;;;;;;;7.40;53.40;;;;;;8419288;28;19932;-73
2022/03/23 02:26:11;;;;;;;;;;;7.40;53.00;;;;;;8410565;28;19947;-73
2022/03/23 02:30:12;;;;;;;;;;;7.40;53.30;;;;;;8406187;28;19925;-73
2022/03/23 02:34:14;;;;;;;;;;;7.30;53.30;;;;;;8396947;28;19924;-73
2022/03/23 02:38:16;;;;;;;;;;;7.30;53.50;;;;;;8408113;28;19924;-73
2022/03/23 02:42:18;;;;;;;;;;;7.30;53.50;;;;;;8401151;28;19977;-72
2022/03/23 02:46:20;;;;;;;;;;;7.20;53.70;;;;;;8386153;28;19931;-74
2022/03/23 02:50:22;;;;;;;;;;;7.20;53.40;;;;;;8391465;28;19932;-73
2022/03/23 03:03:27;;;;;;;;;;;7.20;52.70;;;;;;8411093;28;20406;-73
2022/03/23 03:08:44;;;;;;;;;;;7.10;52.70;;;;;;8414213;28;19931;-73
2022/03/23 03:11:51;;;;;;;;;;;7.10;53.00;;;;;;8414945;28;19924;-73
2022/03/23 03:15:53;;;;;;;;;;;7.00;52.90;;;;;;8400996;28;19924;-73
2022/03/23 03:19:54;;;;;;;;;;;7.00;52.80;;;;;;8419728;28;19935;-72
2022/03/23 03:23:56;;;;;;;;;;;6.90;52.40;;;;;;8409852;28;20296;-73
2022/03/23 03:27:58;;;;;;;;;;;6.80;53.70;;;;;;8414681;28;19935;-73
2022/03/23 03:31:59;;;;;;;;;;;6.60;52.90;;;;;;8418356;28;19924;-73
2022/03/23 03:36:01;;;;;;;;;;;6.40;53.10;;;;;;8403798;28;20771;-73
2022/03/23 03:40:04;;;;;;;;;;;6.40;52.80;;;;;;8414214;28;19928;-73
2022/03/23 03:44:05;;;;;;;;;;;6.40;52.80;;;;;;8412855;28;19955;-72
2022/03/23 03:48:07;;;;;;;;;;;6.30;52.70;;;;;;8399997;28;19936;-73
2022/03/23 03:52:09;;;;;;;;;;;6.10;53.40;;;;;;8409890;28;20359;-73
2022/03/23 03:56:11;;;;;;;;;;;6.00;53.60;;;;;;8405353;28;20348;-72
2022/03/23 04:00:12;;;;;;;;;;;5.90;54.00;;;;;;8404061;28;20376;-73
2022/03/23 04:04:14;;;;;;;;;;;5.90;54.40;;;;;;8402539;28;19947;-73
2022/03/23 04:08:16;;;;;;;;;;;5.90;53.60;;;;;;8413362;28;19924;-72
2022/03/23 04:12:17;;;;;;;;;;;5.90;53.70;;;;;;8412509;28;19931;-72
2022/03/23 04:16:19;;;;;;;;;;;5.90;54.00;;;;;;8405905;28;19936;-73
2022/03/23 04:20:22;;;;;;;;;;;5.80;54.10;;;;;;8425943;28;20114;-73
2022/03/23 04:24:24;;;;;;;;;;;5.70;54.20;;;;;;8410454;28;19924;-72
2022/03/23 04:28:25;;;;;;;;;;;5.70;54.10;;;;;;8416368;28;19925;-72
2022/03/23 04:32:27;;;;;;;;;;;5.70;54.30;;;;;;8399350;28;19928;-72
2022/03/23 04:36:33;;;;;;;;;;;5.60;54.70;;;;;;8405910;28;19959;-72
2022/03/23 04:40:35;;;;;;;;;;;5.60;54.30;;;;;;8397079;28;19936;-73
2022/03/23 04:44:36;;;;;;;;;;;5.60;54.30;;;;;;8401195;28;19980;-72
2022/03/23 04:48:39;;;;;;;;;;;5.50;53.80;;;;;;8403741;28;19939;-73
2022/03/23 04:52:41;;;;;;;;;;;5.50;54.20;;;;;;8408767;28;20359;-73
2022/03/23 04:56:43;;;;;;;;;;;5.50;54.10;;;;;;8404271;28;19924;-72
2022/03/23 05:00:44;;;;;;;;;;;5.50;54.00;;;;;;8415930;28;19931;-72
2022/03/23 05:04:46;;;;;;;;;;;5.40;53.90;;;;;;8423238;28;19924;-72
2022/03/23 05:08:48;;;;;;;;;;;5.40;54.10;;;;;;8419824;28;19928;-72
2022/03/23 05:12:50;;;;;;;;;;;5.30;53.70;;;;;;8421226;28;20292;-72
2022/03/23 05:16:52;;;;;;;;;;;5.20;54.00;;;;;;8416695;28;19947;-72
2022/03/23 05:20:53;;;;;;;;;;;5.20;54.20;;;;;;8420253;28;19927;-72
2022/03/23 05:24:55;;;;;;;;;;;5.10;53.70;;;;;;8418471;28;20241;-72
2022/03/23 05:28:57;;;;;;;;;;;5.10;54.50;;;;;;8409899;28;19976;-72
2022/03/23 05:32:58;;;;;;;;;;;5.00;53.80;;;;;;8419954;28;19964;-72
2022/03/23 05:37:00;;;;;;;;;;;4.90;55.60;;;;;;8421937;28;19924;-72
2022/03/23 05:41:02;;;;;;;;;;;4.70;54.60;;;;;;8414555;28;19932;-72
2022/03/23 05:45:04;;;;;;;;;;;4.60;54.20;;;;;;8391281;28;19964;-72
2022/03/23 05:49:05;;;;;;;;;;;4.50;54.40;;;;;;8414001;28;20387;-72
2022/03/23 05:53:08;;;;;;;;;;;4.50;54.50;;;;;;8388897;28;20362;-73
2022/03/23 05:57:09;;;;;;;;;;;4.50;54.50;;;;;;8393762;28;20296;-72
2022/03/23 06:01:11;;;;;;;;;;;4.50;55.00;;;;;;8406414;28;19925;-72
2022/03/23 06:05:13;;;;;;;;;;;4.50;55.50;;;;;;8395754;28;20019;-72
2022/03/23 06:09:15;;;;;;;;;;;4.50;55.40;;;;;;8421669;28;19946;-72
2022/03/23 06:13:17;;;;;;;;;;;4.60;55.40;;;;;;8393696;28;19928;-72
2022/03/23 06:17:19;;;;;;;;;;;4.60;56.20;;;;;;8416270;28;19984;-72
2022/03/23 06:21:21;;;;;;;;;;;4.70;55.90;;;;;;8419805;28;20705;-72
2022/03/23 06:25:25;;;;;;;;;;;4.80;56.40;;;;;;8425076;28;20269;-72
2022/03/23 06:29:28;;;;;;;;;;;4.80;56.30;;;;;;8423374;28;19924;-72
2022/03/23 06:33:30;;;;;;;;;;;4.90;57.00;;;;;;8415599;28;19924;-72
2022/03/23 06:37:31;;;;;;;;;;;5.00;57.60;;;;;;8416525;28;19944;-72
2022/03/23 06:41:33;;;;;;;;;;;5.10;57.30;;;;;;8403503;28;19932;-72
2022/03/23 06:45:35;;;;;;;;;;;5.20;57.40;;;;;;8428663;28;19924;-72
2022/03/23 06:49:37;;;;;;;;;;;5.40;58.00;;;;;;8412316;28;19928;-72
2022/03/23 06:53:39;;;;;;;;;;;5.60;58.50;;;;;;8400843;28;19931;-72
2022/03/23 06:57:41;;;;;;;;;;;5.70;58.50;;;;;;8423495;28;19939;-72
2022/03/23 07:01:45;;;;;;;;;;;5.90;58.90;;;;;;8389293;28;20355;-72
2022/03/23 07:05:47;;;;;;;;;;;6.00;59.10;;;;;;8406019;28;19974;-72
2022/03/23 07:09:49;;;;;;;;;;;6.20;59.30;;;;;;8415915;28;19995;-73
2022/03/23 07:13:50;;;;;;;;;;;6.40;59.50;;;;;;8419143;28;19924;-72
2022/03/23 07:17:52;;;;;;;;;;;6.60;59.60;;;;;;8422815;28;19931;-72
2022/03/23 07:21:54;;;;;;;;;;;6.90;60.40;;;;;;8419879;28;19946;-72
2022/03/23 07:30:41;;;;;;;;;;;7.30;61.90;;;;;;8417023;28;20383;-72
2022/03/23 07:34:43;;;;;;;;;;;7.50;61.60;;;;;;8414554;28;19977;-72
2022/03/23 07:38:45;;;;;;;;;;;7.80;61.70;;;;;;8412900;28;20240;-72
2022/03/23 07:42:46;;;;;;;;;;;8.00;62.00;;;;;;8415586;28;19938;-72
2022/03/23 07:46:52;;;;;;;;;;;8.20;62.30;;;;;;8436328;28;20287;-72
2022/03/23 07:50:53;;;;;;;;;;;8.50;65.30;;;;;;8413398;28;20520;-72
2022/03/23 07:54:55;;;;;;;;;;;8.80;64.40;;;;;;8411429;28;20338;-72
2022/03/23 07:58:58;;;;;;;;;;;9.00;64.90;;;;;;8388937;28;20011;-72
2022/03/23 08:02:59;;;;;;;;;;;9.40;64.20;;;;;;8402043;28;19924;-72
2022/03/23 08:07:02;;;;;;;;;;;9.80;65.00;;;;;;8403211;28;19924;-72
2022/03/23 08:11:04;;;;;;;;;;;10.10;63.20;;;;;;8405204;28;19931;-72
2022/03/23 08:15:07;;;;;;;;;;;10.50;63.20;;;;;;8408050;28;19932;-73
2022/03/23 08:19:08;;;;;;;;;;;10.80;62.40;;;;;;8416251;28;20344;-72
2022/03/23 08:23:12;;;;;;;;;;;11.10;62.70;;;;;;8418442;28;19932;-72
2022/03/23 08:27:14;;;;;;;;;;;11.30;62.10;;;;;;8420408;28;19924;-72
2022/03/23 08:31:15;;;;;;;;;;;11.60;62.90;;;;;;8420266;28;19977;-73
2022/03/23 08:35:17;;;;;;;;;;;11.70;62.30;;;;;;8427887;28;20380;-73
2022/03/23 08:39:20;;;;;;;;;;;11.90;61.90;;;;;;8419358;28;19924;-72
2022/03/23 08:43:22;;;;;;;;;;;12.10;61.60;;;;;;8423876;28;19924;-73
2022/03/23 08:47:24;;;;;;;;;;;12.30;61.40;;;;;;8428462;28;19936;-72
2022/03/23 08:51:25;;;;;;;;;;;12.60;61.80;;;;;;8423936;28;19935;-73
2022/03/23 08:55:28;;;;;;;;;;;12.90;61.80;;;;;;8423078;28;19924;-72
2022/03/23 08:59:30;;;;;;;;;;;13.20;62.00;;;;;;8421974;28;19931;-72
2022/03/23 09:03:32;;;;;;;;;;;13.40;62.10;;;;;;8426804;28;19924;-73
2022/03/23 09:07:34;;;;;;;;;;;13.70;62.10;;;;;;8418878;28;19986;-72
2022/03/23 09:11:41;;;;;;;;;;;14.00;61.90;;;;;;8415540;28;19982;-72
2022/03/23 09:15:43;;;;;;;;;;;14.20;62.10;;;;;;8420907;28;19931;-72
2022/03/23 09:19:45;;;;;;;;;;;14.40;61.60;;;;;;8425794;28;19924;-72
2022/03/23 09:23:48;;;;;;;;;;;14.60;61.70;;;;;;8420207;28;19930;-72
2022/03/23 09:27:50;;;;;;;;;;;14.80;61.60;;;;;;8423289;28;20017;-72
2022/03/23 09:31:52;;;;;;;;;;;15.00;61.90;;;;;;8409208;28;19924;-73
2022/03/23 09:35:54;;;;;;;;;;;15.20;62.00;;;;;;8413591;28;20314;-72
2022/03/23 09:39:56;;;;;;;;;;;15.40;62.20;;;;;;8422469;28;19974;-72
2022/03/23 09:43:58;;;;;;;;;;;15.50;62.10;;;;;;8418816;28;19928;-72
2022/03/23 09:48:00;;;;;;;;;;;15.80;62.50;;;;;;8426205;28;19928;-72
2022/03/23 09:52:04;;;;;;;;;;;15.90;62.60;;;;;;8413048;28;19936;-72
2022/03/23 09:56:06;;;;;;;;;;;16.00;62.70;;;;;;8426154;28;19935;-73
2022/03/23 10:00:10;;;;;;;;;;;16.20;62.50;;;;;;8416616;28;19928;-73
2022/03/23 10:04:48;;;;;;;;;;;16.40;62.70;;;;;;8422562;28;20379;-73
2022/03/23 10:09:09;;;;;;;;;;;16.70;63.10;;;;;;8426283;28;19924;-73
2022/03/23 10:13:14;;;;;;;;;;;17.20;63.30;;;;;;8421026;28;19925;-73
2022/03/23 10:17:34;;;;;;;;;;;17.50;63.70;;;;;;8422130;28;19924;-73
2022/03/23 10:21:37;;;;;;;;;;;17.70;66.10;;;;;;8424355;28;20138;-73
2022/03/23 10:25:40;;;;;;;;;;;18.00;69.70;;;;;;8420898;28;19931;-73
2022/03/23 10:29:43;;;;;;;;;;;18.30;72.70;;;;;;8419846;28;19924;-73
2022/03/23 10:33:55;;;;;;;;;;;18.70;75.00;;;;;;8419844;28;19935;-73
2022/03/23 10:37:57;;;;;;;;;;;19.10;76.40;;;;;;8412610;28;19931;-73
2022/03/23 10:42:07;;;;;;;;;;;19.40;79.30;;;;;;8426028;28;19935;-73
2022/03/23 10:46:09;;;;;;;;;;;19.80;82.40;;;;;;8402641;28;19931;-73
2022/03/23 10:50:15;;;;;;;;;;;20.20;82.70;;;;;;8416994;28;19924;-73
2022/03/23 10:54:18;;;;;;;;;;;20.30;79.40;;;;;;8417666;28;19927;-72
2022/03/23 10:58:25;;;;;;;;;;;20.20;75.70;;;;;;8411556;28;20131;-72
2022/03/23 11:02:27;;;;;;;;;;;20.40;78.60;;;;;;8416259;28;19956;-73
2022/03/23 11:06:29;;;;;;;;;;;20.80;79.10;;;;;;8433757;28;19934;-73
2022/03/23 11:19:26;;;;;;;;;;;21.20;73.20;;;;;;8419310;28;19973;-73
2022/03/23 11:23:30;;;;;;;;;;;21.70;73.20;;;;;;8403009;28;19963;-73
2022/03/23 11:27:32;;;;;;;;;;;22.10;78.50;;;;;;8396638;28;19924;-73
2022/03/23 11:31:35;;;;;;;;;;;22.70;82.90;;;;;;8422608;28;19924;-73
2022/03/23 11:35:46;;;;;;;;;;;23.40;82.70;;;;;;8401093;28;19924;-73
2022/03/23 11:39:48;;;;;;;;;;;23.60;81.10;;;;;;8402288;28;19935;-73
2022/03/23 11:43:50;;;;;;;;;;;23.60;80.20;;;;;;8416786;28;19924;-73
2022/03/23 11:47:55;;;;;;;;;;;23.80;79.60;;;;;;8388232;28;19935;-73
2022/03/23 11:51:57;;;;;;;;;;;24.00;77.50;;;;;;8414967;28;19939;-73
2022/03/23 11:55:59;;;;;;;;;;;23.90;75.00;;;;;;8421919;28;20053;-73
2022/03/23 12:00:01;;;;;;;;;;;24.00;72.70;;;;;;8398214;28;19924;-73
2022/03/23 12:04:05;;;;;;;;;;;24.30;71.00;;;;;;8408716;28;19978;-73
2022/03/23 12:08:07;;;;;;;;;;;24.60;73.50;;;;;;8395944;28;19927;-73
2022/03/23 12:12:13;;;;;;;;;;;24.80;72.20;;;;;;8407273;28;19942;-73
2022/03/23 12:16:14;;;;;;;;;;;25.10;70.00;;;;;;8403700;28;19939;-74
2022/03/23 12:20:16;;;;;;;;;;;25.10;66.90;;;;;;8408966;28;19932;-73
2022/03/23 12:24:25;;;;;;;;;;;25.20;67.90;;;;;;8386529;28;19927;-73
2022/03/23 12:28:26;;;;;;;;;;;25.40;63.10;;;;;;8400639;28;19928;-73
2022/03/23 12:32:38;;;;;;;;;;;25.70;66.40;;;;;;8380575;28;19931;-73
2022/03/23 12:37:04;;;;;;;;;;;25.50;58.70;;;;;;8382880;28;19928;-73
2022/03/23 12:41:09;;;;;;;;;;;24.60;54.20;;;;;;8385329;28;19989;-73
2022/03/23 12:45:16;;;;;;;;;;;24.00;52.50;;;;;;8403753;28;20248;-73
2022/03/23 12:58:02;;;;;;;;;;;23.00;46.50;;;;;;8415693;28;19921;-73
2022/03/23 13:02:19;;;;;;;;;;;22.80;47.60;;;;;;8422939;28;19923;-73
2022/03/23 13:06:31;;;;;;;;;;;22.80;43.40;;;;;;8403712;28;19931;-73
2022/03/23 13:10:33;;;;;;;;;;;22.50;42.30;;;;;;8427814;28;19961;-73
2022/03/23 13:14:34;;;;;;;;;;;22.40;40.20;;;;;;8404600;28;19962;-73
2022/03/23 13:18:36;;;;;;;;;;;22.30;41.40;;;;;;8419804;28;20378;-73
2022/03/23 13:22:38;;;;;;;;;;;22.30;40.50;;;;;;8406466;28;19919;-73
2022/03/23 13:26:42;;;;;;;;;;;22.00;40.80;;;;;;8424151;28;19939;-73
2022/03/23 13:30:44;;;;;;;;;;;21.90;40.00;;;;;;8420859;28;20023;-73
2022/03/23 13:34:51;;;;;;;;;;;21.90;39.80;;;;;;8409110;28;20367;-73
2022/03/23 13:39:13;;;;;;;;;;;22.00;40.40;;;;;;8420441;28;20410;-73
2022/03/23 13:43:21;;;;;;;;;;;22.30;40.50;;;;;;8405778;28;20012;-73
2022/03/23 13:47:33;;;;;;;;;;;22.50;40.20;;;;;;8418276;28;19920;-73
2022/03/23 13:51:37;;;;;;;;;;;22.80;39.80;;;;;;8396223;28;20260;-73
2022/03/23 13:55:40;;;;;;;;;;;22.60;38.90;;;;;;8421952;28;20039;-73
2022/03/23 13:59:45;;;;;;;;;;;22.50;37.90;;;;;;8410284;28;19948;-73
2022/03/23 14:03:49;;;;;;;;;;;22.30;37.10;;;;;;8425878;28;19924;-73
2022/03/23 14:07:51;;;;;;;;;;;22.20;38.30;;;;;;8414698;28;20391;-73
2022/03/23 14:16:01;;;;;;;;;;;22.60;38.60;;;;;;8419543;28;19931;-73
2022/03/23 14:20:05;;;;;;;;;;;23.00;37.60;;;;;;8408378;28;19920;-73
2022/03/23 14:24:06;;;;;;;;;;;23.60;39.00;;;;;;8420900;28;19935;-73
2022/03/23 14:28:20;;;;;;;;;;;24.40;42.60;;;;;;8425677;28;20425;-74
2022/03/23 14:32:34;;;;;;;;;;;24.80;41.10;;;;;;8420056;28;19920;-73
2022/03/23 14:36:37;;;;;;;;;;;25.40;44.30;;;;;;8398477;28;20321;-73
2022/03/23 14:40:46;;;;;;;;;;;26.10;44.90;;;;;;8370994;28;19966;-73
2022/03/23 14:44:48;;;;;;;;;;;26.30;42.20;;;;;;8387448;28;19928;-73
2022/03/23 14:49:04;;;;;;;;;;;26.20;40.40;;;;;;8387433;28;20144;-73
2022/03/23 14:53:05;;;;;;;;;;;26.40;43.80;;;;;;8384901;28;20323;-73
2022/03/23 14:57:11;;;;;;;;;;;26.70;44.20;;;;;;8383194;28;20073;-73
2022/03/23 15:01:13;;;;;;;;;;;27.20;43.30;;;;;;8389855;28;20276;-73
2022/03/23 15:14:05;;;;;;;;;;;27.20;39.70;;;;;;8387741;28;19920;-74
2022/03/23 15:18:07;;;;;;;;;;;27.00;40.20;;;;;;8386796;28;19924;-73
2022/03/23 15:22:09;;;;;;;;;;;27.00;39.30;;;;;;8385812;28;19931;-74
2022/03/23 15:26:10;;;;;;;;;;;27.10;40.40;;;;;;8389676;28;19928;-73
2022/03/23 15:30:12;;;;;;;;;;;27.60;40.30;;;;;;8388191;28;19920;-74
2022/03/23 15:34:14;;;;;;;;;;;27.90;40.50;;;;;;8374822;28;19921;-74
2022/03/23 15:38:16;;;;;;;;;;;27.90;39.80;;;;;;8386262;28;19932;-73
2022/03/23 15:46:38;;;;;;;;;;;27.90;40.60;;;;;;8386764;28;19935;-73
2022/03/23 15:50:40;;;;;;;;;;;28.20;40.70;;;;;;8384054;28;19923;-74
2022/03/23 15:54:42;;;;;;;;;;;28.30;40.10;;;;;;8391610;28;19928;-74
2022/03/23 15:58:44;;;;;;;;;;;28.10;38.50;;;;;;8391504;28;19920;-74
2022/03/23 16:02:46;;;;;;;;;;;27.90;38.10;;;;;;8373522;28;19980;-74
2022/03/23 16:06:47;;;;;;;;;;;27.90;37.80;;;;;;8371282;28;20166;-74
2022/03/23 16:10:49;;;;;;;;;;;28.00;37.80;;;;;;8370916;28;20416;-74
2022/03/23 16:14:51;;;;;;;;;;;28.00;36.80;;;;;;8385314;28;20245;-74
2022/03/23 16:18:55;;;;;;;;;;;28.00;37.00;;;;;;8389478;28;19928;-74
2022/03/23 16:22:57;;;;;;;;;;;28.20;37.10;;;;;;8390610;28;20287;-74
2022/03/23 16:26:59;;;;;;;;;;;28.40;37.40;;;;;;8369677;28;19935;-74
2022/03/23 16:31:01;;;;;;;;;;;28.60;37.50;;;;;;8382696;28;20255;-74
2022/03/23 16:35:07;;;;;;;;;;;28.70;37.50;;;;;;8390327;28;19920;-74
2022/03/23 16:39:08;;;;;;;;;;;28.60;36.90;;;;;;8389121;28;20248;-74
2022/03/23 16:43:12;;;;;;;;;;;28.30;36.30;;;;;;8386197;28;20276;-74
2022/03/23 16:47:40;;;;;;;;;;;28.10;35.90;;;;;;8391405;28;19928;-74
2022/03/23 16:51:46;;;;;;;;;;;27.90;35.50;;;;;;8390810;28;20294;-74
2022/03/23 16:55:48;;;;;;;;;;;27.80;35.40;;;;;;8392424;28;20206;-74
2022/03/23 16:59:50;;;;;;;;;;;27.60;35.10;;;;;;8404413;28;19921;-74
2022/03/23 17:12:32;;;;;;;;;;;27.00;34.80;;;;;;8391211;28;19931;-74
2022/03/23 17:16:34;;;;;;;;;;;26.60;34.50;;;;;;8394238;28;19936;-74
2022/03/23 17:20:36;;;;;;;;;;;26.20;34.40;;;;;;8394529;28;19928;-74
2022/03/23 17:24:38;;;;;;;;;;;25.60;34.70;;;;;;8385879;28;19931;-74
2022/03/23 17:28:40;;;;;;;;;;;24.80;34.60;;;;;;8393873;28;19935;-74
2022/03/23 17:32:42;;;;;;;;;;;24.20;34.20;;;;;;8391403;28;20379;-74
2022/03/23 17:36:44;;;;;;;;;;;23.80;34.30;;;;;;8392912;28;20264;-74
2022/03/23 17:40:45;;;;;;;;;;;23.30;34.10;;;;;;8398298;28;19928;-74
2022/03/23 17:44:47;;;;;;;;;;;22.80;34.30;;;;;;8391290;28;19927;-74
2022/03/23 17:48:49;;;;;;;;;;;22.10;34.40;;;;;;8386935;28;19927;-73
2022/03/23 17:52:51;;;;;;;;;;;21.60;34.40;;;;;;8372449;28;20372;-74
2022/03/23 17:56:55;;;;;;;;;;;21.10;34.50;;;;;;8393761;28;19924;-74
2022/03/23 18:00:57;;;;;;;;;;;20.60;34.90;;;;;;8400191;28;19930;-74
2022/03/23 18:04:59;;;;;;;;;;;20.00;34.60;;;;;;8377649;28;19924;-74
2022/03/23 18:09:02;;;;;;;;;;;19.70;34.90;;;;;;8385155;28;19931;-74
2022/03/23 18:13:05;;;;;;;;;;;19.50;35.00;;;;;;8392272;28;20395;-74
2022/03/23 18:17:07;;;;;;;;;;;19.20;34.90;;;;;;8380745;28;19931;-74
2022/03/23 18:21:10;;;;;;;;;;;18.80;34.90;;;;;;8407389;28;19928;-74
2022/03/23 18:25:12;;;;;;;;;;;18.50;35.00;;;;;;8391424;28;19928;-74
2022/03/23 18:29:14;;;;;;;;;;;18.20;35.10;;;;;;8391480;28;19927;-73
2022/03/23 18:33:20;;;;;;;;;;;17.90;35.10;;;;;;8393500;28;20284;-73
2022/03/23 18:37:22;;;;;;;;;;;17.60;35.10;;;;;;8391834;28;20202;-74
2022/03/23 18:41:24;;;;;;;;;;;17.40;35.00;;;;;;8397163;28;19935;-74
2022/03/23 18:45:26;;;;;;;;;;;17.30;35.20;;;;;;8391092;28;19924;-74
2022/03/23 18:49:27;;;;;;;;;;;17.10;35.30;;;;;;8397382;28;19927;-74
2022/03/23 18:58:32;;;;;;;;;;;16.70;35.70;;;;;;8396522;28;20455;-74
2022/03/23 19:02:34;;;;;;;;;;;16.50;35.70;;;;;;8397141;28;19955;-74
2022/03/23 19:06:36;;;;;;;;;;;16.40;35.80;;;;;;8389964;28;20088;-74
2022/03/23 19:10:38;;;;;;;;;;;16.30;35.80;;;;;;8393759;28;20763;-74
2022/03/23 19:14:39;;;;;;;;;;;16.20;35.70;;;;;;8398485;28;19928;-74
2022/03/23 19:18:41;;;;;;;;;;;16.00;35.70;;;;;;8388648;28;20256;-74
2022/03/23 19:22:43;;;;;;;;;;;15.90;36.10;;;;;;8393931;28;19999;-74
2022/03/23 19:26:45;;;;;;;;;;;15.80;36.00;;;;;;8390372;28;19920;-74
2022/03/23 19:30:47;;;;;;;;;;;15.70;35.90;;;;;;8389307;28;19920;-74
2022/03/23 19:34:49;;;;;;;;;;;15.70;36.10;;;;;;8386682;28;19924;-74
2022/03/23 19:38:52;;;;;;;;;;;15.60;36.20;;;;;;8391642;28;19920;-74
2022/03/23 19:42:54;;;;;;;;;;;15.50;36.20;;;;;;8375928;28;20587;-74
2022/03/23 19:46:55;;;;;;;;;;;15.30;36.40;;;;;;8382687;28;19928;-74
2022/03/23 19:50:57;;;;;;;;;;;15.10;36.40;;;;;;8369525;28;19928;-74
2022/03/23 19:55:00;;;;;;;;;;;14.90;36.80;;;;;;8403572;28;19928;-73
2022/03/23 19:59:02;;;;;;;;;;;14.60;36.90;;;;;;8375935;28;19928;-74
2022/03/23 20:03:04;;;;;;;;;;;14.40;37.20;;;;;;8379981;28;19928;-73
2022/03/23 20:07:05;;;;;;;;;;;14.30;37.20;;;;;;8398082;28;19927;-74
2022/03/23 20:11:08;;;;;;;;;;;14.20;37.50;;;;;;8398211;28;20396;-74
2022/03/23 20:15:10;;;;;;;;;;;14.00;37.70;;;;;;8399545;28;19932;-74
2022/03/23 20:19:11;;;;;;;;;;;13.90;37.90;;;;;;8399247;28;19927;-74
2022/03/23 20:23:14;;;;;;;;;;;13.70;37.90;;;;;;8407611;28;19920;-75
2022/03/23 20:27:16;;;;;;;;;;;13.60;38.00;;;;;;8398487;28;19927;-75
2022/03/23 20:31:20;;;;;;;;;;;13.50;38.20;;;;;;8404460;28;19924;-74
2022/03/23 20:35:22;;;;;;;;;;;13.40;38.20;;;;;;8407875;28;19923;-74
2022/03/23 20:39:23;;;;;;;;;;;13.40;38.40;;;;;;8403682;28;19925;-74
2022/03/23 20:43:25;;;;;;;;;;;13.30;38.50;;;;;;8403889;28;19923;-74
2022/03/23 20:47:39;;;;;;;;;;;13.30;38.60;;;;;;8404959;28;19929;-74
2022/03/23 20:51:41;;;;;;;;;;;13.20;38.80;;;;;;8416422;28;19924;-75
2022/03/23 20:55:43;;;;;;;;;;;13.10;38.60;;;;;;8400562;28;19920;-75
2022/03/23 20:59:45;;;;;;;;;;;12.90;38.80;;;;;;8385554;28;19927;-74
2022/03/23 21:03:48;;;;;;;;;;;12.70;38.90;;;;;;8408190;28;19927;-75
2022/03/23 21:07:57;;;;;;;;;;;12.60;39.00;;;;;;8393195;28;19947;-74
2022/03/23 21:11:59;;;;;;;;;;;12.50;39.40;;;;;;8407142;28;19920;-74
2022/03/23 21:16:01;;;;;;;;;;;12.30;39.40;;;;;;8406153;28;19928;-75
2022/03/23 21:20:05;;;;;;;;;;;12.20;39.60;;;;;;8419773;28;19919;-74
2022/03/23 21:24:07;;;;;;;;;;;12.00;40.30;;;;;;8390471;28;20379;-74
2022/03/23 21:28:10;;;;;;;;;;;11.80;39.80;;;;;;8393986;28;20284;-74
2022/03/23 21:32:11;;;;;;;;;;;11.70;40.60;;;;;;8406960;28;19928;-74
2022/03/23 21:36:13;;;;;;;;;;;11.50;40.90;;;;;;8407523;28;19962;-75
2022/03/23 21:40:15;;;;;;;;;;;11.40;40.50;;;;;;8403750;28;19935;-74
2022/03/23 21:44:17;;;;;;;;;;;11.30;40.70;;;;;;8404104;28;19924;-74
2022/03/23 21:48:21;;;;;;;;;;;11.20;41.40;;;;;;8389138;28;20400;-74
2022/03/23 21:52:23;;;;;;;;;;;11.10;41.40;;;;;;8417816;28;19935;-74
2022/03/23 21:56:24;;;;;;;;;;;11.00;41.00;;;;;;8406747;28;19927;-74
2022/03/23 22:00:28;;;;;;;;;;;10.90;41.50;;;;;;8389165;28;19943;-73
2022/03/23 22:04:30;;;;;;;;;;;10.80;41.20;;;;;;8425202;28;19982;-74
2022/03/23 22:08:32;;;;;;;;;;;10.70;41.30;;;;;;8399126;28;19927;-74
2022/03/23 22:12:34;;;;;;;;;;;10.70;41.20;;;;;;8423027;28;19925;-74
2022/03/23 22:16:36;;;;;;;;;;;10.60;41.30;;;;;;8421531;28;19925;-74
2022/03/23 22:20:37;;;;;;;;;;;10.50;41.10;;;;;;8420038;28;20076;-75
2022/03/23 22:24:39;;;;;;;;;;;10.50;41.30;;;;;;8417397;28;19925;-74
2022/03/23 22:28:42;;;;;;;;;;;10.40;41.10;;;;;;8409415;28;19933;-74
2022/03/23 22:32:43;;;;;;;;;;;10.30;41.50;;;;;;8427118;28;19924;-74
2022/03/23 22:36:47;;;;;;;;;;;10.30;41.20;;;;;;8423021;28;20539;-74
2022/03/23 22:40:52;;;;;;;;;;;10.20;41.50;;;;;;8422925;28;19931;-74
2022/03/23 22:44:53;;;;;;;;;;;10.10;41.90;;;;;;8402687;28;19928;-73
2022/03/23 22:48:55;;;;;;;;;;;10.00;41.70;;;;;;8427824;28;20284;-74
2022/03/23 22:52:57;;;;;;;;;;;9.90;43.30;;;;;;8403810;28;20284;-74
2022/03/23 22:56:59;;;;;;;;;;;9.70;43.10;;;;;;8405504;28;19931;-74
2022/03/23 23:01:08;;;;;;;;;;;9.50;42.80;;;;;;8424811;28;19932;-73
2022/03/23 23:05:10;;;;;;;;;;;9.30;43.30;;;;;;8425216;28;19932;-73
2022/03/23 23:09:11;;;;;;;;;;;9.20;43.50;;;;;;8413781;28;19935;-74
2022/03/23 23:13:13;;;;;;;;;;;9.10;43.70;;;;;;8404741;28;19924;-74
2022/03/23 23:17:16;;;;;;;;;;;8.90;44.30;;;;;;8422112;28;19925;-74
2022/03/23 23:21:18;;;;;;;;;;;8.80;44.10;;;;;;8406364;28;20313;-73
2022/03/23 23:25:20;;;;;;;;;;;8.70;43.70;;;;;;8425111;28;19928;-74
2022/03/23 23:29:34;;;;;;;;;;;8.60;44.40;;;;;;8418561;28;19924;-75
2022/03/23 23:33:41;;;;;;;;;;;8.50;44.50;;;;;;8401610;28;19925;-74
2022/03/23 23:37:44;;;;;;;;;;;8.50;44.00;;;;;;8423480;28;19924;-74
2022/03/23 23:41:45;;;;;;;;;;;8.50;44.60;;;;;;8404061;28;19955;-74
2022/03/23 23:45:47;;;;;;;;;;;8.50;45.00;;;;;;8425801;28;19959;-74
2022/03/23 23:49:49;;;;;;;;;;;8.50;45.10;;;;;;8424968;28;19985;-77
2022/03/23 23:53:50;;;;;;;;;;;8.40;44.70;;;;;;8415058;28;19935;-74
2022/03/23 23:57:52;;;;;;;;;;;8.40;44.70;;;;;;8427177;28;19947;-74
